createdAt,value
2018-07-12T00:03:42.677Z,77.40
2018-07-12T00:08:44.964Z,77.30
2018-07-12T00:13:47.227Z,77.90
2018-07-12T00:23:51.997Z,77.50
2018-07-12T00:28:54.237Z,78.40
2018-07-12T00:33:56.782Z,78.10
2018-07-12T00:38:59.082Z,78.30
2018-07-12T00:44:01.302Z,78.10
2018-07-12T00:49:03.521Z,78.60
2018-07-12T00:54:05.771Z,78.00
2018-07-12T00:59:08.008Z,77.30
2018-07-12T01:04:10.218Z,77.80
2018-07-12T01:09:12.455Z,78.20
2018-07-12T01:14:14.708Z,77.60
2018-07-12T01:19:16.920Z,77.40
2018-07-12T01:24:19.158Z,77.90
2018-07-12T01:29:21.383Z,78.30
2018-07-12T01:34:23.590Z,77.80
2018-07-12T01:39:26.006Z,77.80
2018-07-12T01:44:28.222Z,77.90
2018-07-12T01:49:30.459Z,77.90
2018-07-12T01:54:32.708Z,77.50
2018-07-12T01:59:34.918Z,77.40
2018-07-12T02:04:37.134Z,78.10
2018-07-12T02:09:39.435Z,77.90
2018-07-12T02:14:41.648Z,78.60
2018-07-12T02:19:43.883Z,79.20
2018-07-12T02:24:46.116Z,79.00
2018-07-12T02:29:48.337Z,78.40
2018-07-12T02:34:50.596Z,79.50
2018-07-12T02:39:52.815Z,79.20
2018-07-12T02:44:55.091Z,79.00
2018-07-12T02:49:57.314Z,79.30
2018-07-12T02:55:00.284Z,79.30
2018-07-12T03:00:02.598Z,79.60
2018-07-12T03:05:04.855Z,80.90
2018-07-12T03:10:07.071Z,80.30
2018-07-12T03:15:09.343Z,81.50
2018-07-12T03:20:11.559Z,80.30
2018-07-12T03:25:13.799Z,79.90
2018-07-12T03:30:16.024Z,80.20
2018-07-12T03:35:18.278Z,80.20
2018-07-12T03:40:20.547Z,80.90
2018-07-12T03:45:23.020Z,80.30
2018-07-12T03:50:25.237Z,80.90
2018-07-12T03:55:27.487Z,81.20
2018-07-12T04:00:29.770Z,81.90
2018-07-12T04:05:31.986Z,82.30
2018-07-12T04:10:34.224Z,82.20
2018-07-12T04:15:36.463Z,82.70
2018-07-12T04:20:38.718Z,83.00
2018-07-12T04:25:40.947Z,83.40
2018-07-12T04:30:43.174Z,83.90
2018-07-12T04:35:45.411Z,82.90
2018-07-12T04:40:47.674Z,83.20
2018-07-12T04:45:49.925Z,83.00
2018-07-12T04:50:52.147Z,83.10
2018-07-12T04:55:54.587Z,83.40
2018-07-12T05:00:56.814Z,82.90
2018-07-12T05:05:59.033Z,82.20
2018-07-12T05:11:01.260Z,82.10
2018-07-12T05:16:03.519Z,83.70
2018-07-12T05:21:05.717Z,82.90
2018-07-12T05:26:07.943Z,83.20
2018-07-12T05:31:10.154Z,82.90
2018-07-12T05:36:21.914Z,81.60
2018-07-12T05:51:31.278Z,78.40
2018-07-12T05:56:34.826Z,79.20
2018-07-12T06:01:49.535Z,80.00
2018-07-12T06:06:53.096Z,80.60
2018-07-12T06:11:56.410Z,79.60
2018-07-12T06:16:59.699Z,80.10
2018-07-12T06:22:02.974Z,80.10
2018-07-12T06:27:06.351Z,78.90
2018-07-12T06:32:09.676Z,78.80
2018-07-12T06:37:13.175Z,78.70
2018-07-12T06:42:16.585Z,77.00
2018-07-12T06:47:19.906Z,77.20
2018-07-12T06:52:23.197Z,75.90
2018-07-12T06:57:26.493Z,75.70
2018-07-12T07:02:37.804Z,75.90
2018-07-12T07:07:41.059Z,76.20
2018-07-12T07:12:44.463Z,76.10
2018-07-12T07:17:47.738Z,75.70
2018-07-12T07:22:51.462Z,75.10
2018-07-12T07:27:54.851Z,74.80
2018-07-12T07:32:58.108Z,75.00
2018-07-12T07:38:01.475Z,74.30
2018-07-12T07:43:05.179Z,74.80
2018-07-12T07:48:08.558Z,74.70
2018-07-12T07:53:11.856Z,72.70
2018-07-12T07:58:15.171Z,73.40
2018-07-12T08:03:18.500Z,74.20
2018-07-12T08:08:21.773Z,72.20
2018-07-12T08:13:25.037Z,72.70
2018-07-12T08:18:28.296Z,68.80
2018-07-12T08:23:31.571Z,70.50
2018-07-12T08:28:34.814Z,70.30
2018-07-12T08:33:44.722Z,69.20
2018-07-12T08:38:47.983Z,68.70
2018-07-12T08:43:51.291Z,68.30
2018-07-12T08:48:54.536Z,67.60
2018-07-12T08:53:57.775Z,66.50
2018-07-12T08:59:01.151Z,65.60
2018-07-12T09:04:04.444Z,64.20
2018-07-12T09:09:08.295Z,65.70
2018-07-12T09:14:11.611Z,64.50
2018-07-12T09:19:14.879Z,64.20
2018-07-12T09:24:18.135Z,64.30
2018-07-12T09:29:21.433Z,65.00
2018-07-12T09:34:24.736Z,64.10
2018-07-12T09:39:28.019Z,62.80
2018-07-12T09:44:31.446Z,63.60
2018-07-12T09:49:34.876Z,63.50
2018-07-12T09:54:38.227Z,63.70
2018-07-12T09:59:41.612Z,62.20
2018-07-12T10:04:44.899Z,61.90
2018-07-12T10:15:05.644Z,62.70
2018-07-12T10:20:08.870Z,62.70
2018-07-12T10:25:12.323Z,60.50
2018-07-12T10:30:15.597Z,59.90
2018-07-12T10:35:18.951Z,58.50
2018-07-12T10:40:22.195Z,58.10
2018-07-12T10:45:25.466Z,59.50
2018-07-12T10:50:28.730Z,60.70
2018-07-12T10:55:32.096Z,60.10
2018-07-12T11:00:35.566Z,59.70
2018-07-12T11:05:38.830Z,59.00
2018-07-12T11:10:42.226Z,56.90
2018-07-12T11:15:46.456Z,54.40
2018-07-12T11:25:52.795Z,56.60
2018-07-12T11:30:56.100Z,53.90
2018-07-12T11:35:59.420Z,55.80
2018-07-12T11:41:03.300Z,56.80
2018-07-12T11:46:07.836Z,52.40
2018-07-12T11:51:11.267Z,52.50
2018-07-12T11:56:14.648Z,53.90
2018-07-12T12:01:18.155Z,55.80
2018-07-12T12:06:21.395Z,55.50
2018-07-12T12:11:24.758Z,52.20
2018-07-12T12:16:28.046Z,53.30
2018-07-12T12:21:31.460Z,52.80
2018-07-12T12:26:34.764Z,54.60
2018-07-12T12:31:38.039Z,53.30
2018-07-12T12:36:41.275Z,50.60
2018-07-12T12:41:44.686Z,51.60
2018-07-12T12:46:47.942Z,53.20
2018-07-12T12:51:51.261Z,53.80
2018-07-12T12:56:54.511Z,53.00
2018-07-12T13:01:57.881Z,52.10
2018-07-12T13:07:01.244Z,49.10
2018-07-12T13:12:04.631Z,50.90
2018-07-12T13:17:07.998Z,52.40
2018-07-12T13:22:11.637Z,53.20
2018-07-12T13:27:14.941Z,53.20
2018-07-12T13:32:18.204Z,52.00
2018-07-12T13:37:21.664Z,50.00
2018-07-12T13:42:24.919Z,50.60
2018-07-12T13:47:28.207Z,50.40
2018-07-12T13:52:31.467Z,51.20
2018-07-12T13:57:34.815Z,51.80
2018-07-12T14:02:38.273Z,52.40
2018-07-12T14:07:41.651Z,51.10
2018-07-12T14:12:44.996Z,51.70
2018-07-12T14:17:48.258Z,51.50
2018-07-12T14:22:51.617Z,49.00
2018-07-12T14:27:54.965Z,49.00
2018-07-12T14:32:58.299Z,49.70
2018-07-12T14:38:01.551Z,49.90
2018-07-12T14:43:04.855Z,48.90
2018-07-12T14:48:08.168Z,49.30
2018-07-12T14:53:11.578Z,49.70
2018-07-12T14:58:14.847Z,49.70
2018-07-12T15:03:18.150Z,49.50
2018-07-12T15:08:21.430Z,49.90
2018-07-12T15:13:24.690Z,49.20
2018-07-12T15:18:28.099Z,48.40
2018-07-12T15:23:31.402Z,47.90
2018-07-12T15:28:34.843Z,49.00
2018-07-12T15:33:38.201Z,48.60
2018-07-12T15:38:41.478Z,46.40
2018-07-12T15:43:44.806Z,46.20
2018-07-12T15:48:48.087Z,46.50
2018-07-12T15:53:51.355Z,47.00
2018-07-12T15:58:54.619Z,47.30
2018-07-12T16:03:57.963Z,46.70
2018-07-12T16:09:01.218Z,48.50
2018-07-12T16:14:04.542Z,48.80
2018-07-12T16:19:07.850Z,48.60
2018-07-12T16:24:11.211Z,48.20
2018-07-12T16:29:14.462Z,48.00
2018-07-12T16:34:18.067Z,47.80
2018-07-12T16:44:24.432Z,46.70
2018-07-12T16:49:27.764Z,44.80
2018-07-12T16:54:32.245Z,45.80
2018-07-12T16:59:35.495Z,46.00
2018-07-12T17:04:38.828Z,46.80
2018-07-12T17:09:42.192Z,47.60
2018-07-12T17:14:45.565Z,47.90
2018-07-12T17:19:48.813Z,49.30
2018-07-12T17:24:52.231Z,48.30
2018-07-12T17:29:55.648Z,47.90
2018-07-12T17:34:58.914Z,46.40
2018-07-12T17:40:02.263Z,46.30
2018-07-12T17:45:05.574Z,47.40
2018-07-12T17:50:08.840Z,47.10
2018-07-12T17:55:12.094Z,47.70
2018-07-12T18:00:15.437Z,47.50
2018-07-12T18:05:18.860Z,48.00
2018-07-12T18:10:22.042Z,48.80
2018-07-12T18:15:25.320Z,49.50
2018-07-12T18:20:28.687Z,49.40
2018-07-12T18:25:32.040Z,49.90
2018-07-12T18:30:35.342Z,49.80
2018-07-12T18:35:38.781Z,50.00
2018-07-12T18:40:42.204Z,50.50
2018-07-12T18:45:45.857Z,50.90
2018-07-12T18:50:49.158Z,50.20
2018-07-12T18:55:52.421Z,51.10
2018-07-12T19:00:55.773Z,50.80
2018-07-12T19:05:59.387Z,51.50
2018-07-12T19:11:02.718Z,51.20
2018-07-12T19:16:06.057Z,51.70
2018-07-12T19:21:09.371Z,52.40
2018-07-12T19:26:12.671Z,52.40
2018-07-12T19:31:16.236Z,53.10
2018-07-12T19:36:19.502Z,52.80
2018-07-12T19:41:22.769Z,53.10
2018-07-12T19:46:26.127Z,53.70
2018-07-12T19:51:29.441Z,53.90
2018-07-12T19:56:32.743Z,53.90
2018-07-12T20:01:36.105Z,54.40
2018-07-12T20:06:40.257Z,55.00
2018-07-12T20:11:43.655Z,55.70
2018-07-12T20:16:46.949Z,54.70
2018-07-12T20:21:50.250Z,55.30
2018-07-12T20:31:57.114Z,54.80
2018-07-12T20:42:03.725Z,55.70
2018-07-12T20:47:07.128Z,55.20
2018-07-12T20:52:10.423Z,55.60
2018-07-12T20:57:13.797Z,55.60
2018-07-12T21:02:17.198Z,55.50
2018-07-12T21:07:21.412Z,55.20
2018-07-12T21:12:24.603Z,55.90
2018-07-12T21:17:27.860Z,56.20
2018-07-12T21:22:31.116Z,56.00
2018-07-12T21:27:34.357Z,56.10
2018-07-12T21:32:37.771Z,55.60
2018-07-12T21:37:41.054Z,55.00
2018-07-12T21:42:44.322Z,55.10
2018-07-12T21:47:47.562Z,55.00
2018-07-12T21:52:50.858Z,55.80
2018-07-12T21:57:54.144Z,55.30
2018-07-12T22:02:57.553Z,55.50
2018-07-12T22:08:28.348Z,55.60
2018-07-12T22:13:32.632Z,56.00
2018-07-12T22:18:35.923Z,56.00
2018-07-12T22:23:39.182Z,56.00
2018-07-12T22:28:42.413Z,56.40
2018-07-12T22:33:45.667Z,56.40
2018-07-12T22:38:48.944Z,56.90
2018-07-12T22:43:52.215Z,56.60
2018-07-12T22:48:55.643Z,57.20
2018-07-12T22:53:58.853Z,57.70
2018-07-12T23:04:05.227Z,58.20
2018-07-12T23:09:08.695Z,58.80
2018-07-12T23:14:12.032Z,59.10
2018-07-12T23:19:15.319Z,59.50
2018-07-12T23:24:18.707Z,59.50
2018-07-12T23:29:21.978Z,60.00
2018-07-12T23:34:25.302Z,60.70
2018-07-12T23:39:28.586Z,61.00
2018-07-12T23:44:31.842Z,61.70
2018-07-12T23:49:35.123Z,62.60
2018-07-12T23:54:38.427Z,63.40
2018-07-12T23:59:41.777Z,63.40
